Time;durP1;ratioP1;P1;durP2;ratioP2;P2;SDS_P1;SDS_P2;PMS_P1;PMS_P2;Temp;Humidity;BMP_temperature;BMP_pressure;BME280_temperature;BME280_humidity;BME280_pressure;Samples;Min_cycle;Max_cycle;Signal;HPM_P1;HPM_P2
2023/05/10 04:49:11;;;;;;;32.50;20.60;;;;;;;7.27;100.00;101714.55;104218;1282;602481;-68
2023/05/10 04:51:40;;;;;;;36.90;22.80;;;;;;;7.41;100.00;101715.66;106252;1260;59270;-68
2023/05/10 04:54:09;;;;;;;27.10;16.50;;;;;;;7.61;100.00;101715.70;106560;1254;59060;-68
2023/05/10 04:56:38;;;;;;;23.40;15.70;;;;;;;7.86;100.00;101720.64;106768;1251;72741;-68
2023/05/10 04:59:07;;;;;;;23.70;14.70;;;;;;;8.05;100.00;101716.98;106770;1251;73298;-68
2023/05/10 05:01:35;;;;;;;25.70;15.90;;;;;;;8.27;100.00;101718.08;106572;1258;60981;-69
2023/05/10 05:04:04;;;;;;;23.80;14.40;;;;;;;8.43;100.00;101716.11;106532;1247;74054;-69
2023/05/10 05:06:33;;;;;;;20.70;14.10;;;;;;;8.60;100.00;101715.30;106907;1244;59104;-70
2023/05/10 05:09:03;;;;;;;19.20;13.40;;;;;;;8.76;100.00;101714.52;106906;1254;57538;-70
2023/05/10 05:11:31;;;;;;;20.60;12.50;;;;;;;8.90;100.00;101714.38;106885;1247;71120;-68
2023/05/10 05:14:00;;;;;;;18.50;11.50;;;;;;;9.00;100.00;101712.48;106934;1246;72359;-70
2023/05/10 05:16:31;;;;;;;21.70;12.50;;;;;;;9.07;100.00;101709.91;106996;1247;70807;-68
2023/05/10 05:19:01;;;;;;;16.80;11.50;;;;;;;9.22;100.00;101709.97;107045;1249;64451;-69
2023/05/10 05:21:29;;;;;;;20.10;11.70;;;;;;;9.42;100.00;101712.59;106960;1251;62118;-69
2023/05/10 05:23:58;;;;;;;19.00;11.70;;;;;;;9.58;100.00;101707.97;106960;1246;61869;-69
2023/05/10 05:26:27;;;;;;;19.20;12.50;;;;;;;9.81;100.00;101713.00;107115;1248;72958;-68
2023/05/10 05:28:56;;;;;;;18.10;10.80;;;;;;;9.90;100.00;101710.59;107049;1249;72596;-68
2023/05/10 05:31:25;;;;;;;17.40;11.30;;;;;;;10.02;100.00;101708.36;106964;1257;60270;-70
2023/05/10 05:33:55;;;;;;;17.60;11.20;;;;;;;10.13;100.00;101710.27;106858;1259;72908;-69
2023/05/10 05:36:24;;;;;;;21.60;12.80;;;;;;;10.22;100.00;101712.19;107040;1246;58992;-69
2023/05/10 05:38:53;;;;;;;23.30;11.70;;;;;;;10.32;100.00;101709.89;106918;1250;58994;-68
2023/05/10 05:41:23;;;;;;;18.80;11.80;;;;;;;10.41;100.00;101712.91;106994;1259;62495;-68
2023/05/10 05:43:52;;;;;;;15.70;11.00;;;;;;;10.58;100.00;101715.79;107146;1248;60905;-69
2023/05/10 05:46:21;;;;;;;16.40;10.90;;;;;;;10.72;100.00;101710.29;107050;1255;60040;-69
2023/05/10 05:48:50;;;;;;;16.10;9.80;;;;;;;10.76;100.00;101712.70;107175;1257;62762;-70
2023/05/10 05:51:19;;;;;;;15.70;10.30;;;;;;;10.73;100.00;101715.45;107147;1248;59105;-70
2023/05/10 05:53:48;;;;;;;18.30;11.10;;;;;;;10.74;100.00;101716.06;107152;1248;60462;-69
2023/05/10 05:56:23;;;;;;;19.40;12.20;;;;;;;10.85;100.00;101712.66;107117;1247;63084;-69
2023/05/10 05:58:53;;;;;;;16.90;10.50;;;;;;;10.94;100.00;101715.45;107110;1244;72160;-68
2023/05/10 06:01:21;;;;;;;19.70;13.00;;;;;;;10.98;100.00;101717.14;107152;1244;70952;-69
2023/05/10 06:03:50;;;;;;;16.10;11.00;;;;;;;11.06;100.00;101717.52;107094;1245;73588;-68
2023/05/10 06:06:21;;;;;;;16.70;12.10;;;;;;;11.11;100.00;101716.17;107162;1247;61222;-68
2023/05/10 06:08:49;;;;;;;18.20;12.90;;;;;;;11.13;100.00;101717.33;107224;1246;61316;-70
2023/05/10 06:11:18;;;;;;;18.70;11.50;;;;;;;11.10;100.00;101716.95;107145;1251;72831;-70
2023/05/10 06:13:47;;;;;;;17.10;12.60;;;;;;;11.19;100.00;101714.36;107118;1248;61700;-70
2023/05/10 06:16:17;;;;;;;22.40;12.10;;;;;;;11.22;100.00;101712.27;107168;1243;70227;-69
2023/05/10 06:18:46;;;;;;;25.10;11.10;;;;;;;11.44;100.00;101706.41;107139;1245;63805;-70
2023/05/10 06:21:16;;;;;;;18.50;12.50;;;;;;;11.66;100.00;101709.95;107146;1246;59147;-70
2023/05/10 06:23:45;;;;;;;21.60;11.60;;;;;;;11.98;100.00;101709.95;107089;1248;60110;-71
2023/05/10 06:26:13;;;;;;;14.80;9.40;;;;;;;12.12;100.00;101706.09;107325;1254;72618;-70
2023/05/10 06:28:42;;;;;;;18.20;10.40;;;;;;;12.20;100.00;101700.65;107105;1245;61197;-71
2023/05/10 06:31:12;;;;;;;19.20;10.20;;;;;;;12.42;100.00;101700.30;107196;1255;59036;-70
2023/05/10 06:33:41;;;;;;;14.70;10.70;;;;;;;12.56;100.00;101699.92;107113;1244;72873;-71
2023/05/10 06:36:10;;;;;;;17.00;9.90;;;;;;;12.60;100.00;101698.85;107092;1244;58924;-70
2023/05/10 06:38:39;;;;;;;19.10;11.10;;;;;;;12.66;100.00;101695.82;107041;1248;59060;-70
2023/05/10 06:41:08;;;;;;;12.60;9.20;;;;;;;12.74;99.76;101695.61;107172;1256;61697;-69
2023/05/10 06:43:39;;;;;;;17.30;9.90;;;;;;;12.81;97.25;101691.00;107164;1244;71555;-70
2023/05/10 06:46:09;;;;;;;16.90;10.90;;;;;;;12.79;93.97;101693.20;107169;1245;62026;-70
2023/05/10 06:48:37;;;;;;;13.90;9.30;;;;;;;12.73;97.68;101694.61;107168;1252;73849;-70
2023/05/10 06:51:06;;;;;;;15.20;8.70;;;;;;;12.79;90.65;101691.77;107104;1245;61175;-70
2023/05/10 06:53:35;;;;;;;13.10;8.00;;;;;;;12.86;89.80;101693.77;107338;1245;60371;-70
2023/05/10 06:56:04;;;;;;;11.30;6.30;;;;;;;13.00;77.04;101689.70;107428;1245;62701;-71
2023/05/10 06:58:33;;;;;;;8.60;5.80;;;;;;;13.01;61.92;101687.55;107434;1256;61575;-72
2023/05/10 07:01:04;;;;;;;9.90;5.80;;;;;;;13.06;61.00;101689.63;107346;1245;60072;-69
2023/05/10 07:03:32;;;;;;;10.30;5.60;;;;;;;13.25;62.72;101686.09;107214;1244;73813;-71
2023/05/10 07:06:04;;;;;;;13.10;8.00;;;;;;;13.46;64.83;101686.29;107242;1253;61169;-69
2023/05/10 07:08:34;;;;;;;9.90;6.00;;;;;;;13.27;63.93;101690.99;107193;1245;59917;-69
2023/05/10 07:11:05;;;;;;;10.40;5.60;;;;;;;13.41;60.60;101690.64;107163;1254;73665;-76
2023/05/10 07:13:34;;;;;;;10.70;5.50;;;;;;;13.65;62.28;101694.35;107312;1245;71897;-72
2023/05/10 07:16:06;;;;;;;10.30;4.90;;;;;;;13.85;60.92;101692.29;107107;1248;59627;-73
2023/05/10 07:18:34;;;;;;;9.40;5.50;;;;;;;13.97;58.80;101694.57;107305;1255;73799;-71
2023/05/10 07:21:03;;;;;;;7.60;4.20;;;;;;;14.23;58.06;101694.12;107056;1248;60796;-70
2023/05/10 07:23:32;;;;;;;9.70;4.80;;;;;;;14.50;55.90;101690.20;107138;1247;62084;-73
2023/05/10 07:26:02;;;;;;;7.50;3.70;;;;;;;14.70;54.15;101691.39;107284;1245;72900;-73
2023/05/10 07:28:30;;;;;;;7.00;4.10;;;;;;;14.80;51.38;101687.63;107275;1246;72749;-73
2023/05/10 07:30:59;;;;;;;6.70;4.50;;;;;;;14.88;52.47;101687.61;107273;1255;59649;-74
2023/05/10 07:33:28;;;;;;;7.30;4.20;;;;;;;14.75;53.78;101688.27;107252;1245;63273;-72
2023/05/10 07:35:57;;;;;;;16.00;7.10;;;;;;;14.95;52.20;101689.85;107306;1245;61179;-72
2023/05/10 07:38:26;;;;;;;9.10;4.80;;;;;;;15.02;51.13;101690.58;107150;1244;57944;-73
2023/05/10 07:40:55;;;;;;;9.30;4.40;;;;;;;15.05;50.94;101688.60;107256;1248;71820;-73
2023/05/10 07:43:23;;;;;;;6.40;3.80;;;;;;;14.93;50.58;101684.08;107285;1246;72424;-73
2023/05/10 07:45:52;;;;;;;7.30;3.70;;;;;;;14.97;51.43;101685.32;107254;1248;60324;-73
2023/05/10 07:48:23;;;;;;;7.70;3.60;;;;;;;14.98;48.46;101684.17;107255;1256;71996;-73
2023/05/10 07:50:52;;;;;;;5.20;3.50;;;;;;;15.16;49.87;101682.28;107361;1244;59087;-72
2023/05/10 07:53:21;;;;;;;5.10;3.50;;;;;;;15.20;48.63;101677.95;107304;1246;57549;-72
2023/05/10 07:55:58;;;;;;;5.40;3.10;;;;;;;15.20;48.14;101678.13;107276;1244;73155;-72
2023/05/10 07:58:26;;;;;;;8.10;3.20;;;;;;;15.33;45.72;101679.39;107262;1243;72464;-73
2023/05/10 08:00:56;;;;;;;8.00;3.20;;;;;;;15.46;45.68;101681.02;107323;1245;59532;-76
2023/05/10 08:03:25;;;;;;;5.60;2.80;;;;;;;15.55;45.03;101679.13;107236;1247;73875;-74
2023/05/10 08:05:53;;;;;;;9.30;3.10;;;;;;;15.25;43.39;101679.16;107219;1245;59123;-74
2023/05/10 08:08:23;;;;;;;5.70;3.20;;;;;;;15.01;44.80;101683.68;107029;1248;57546;-73
2023/05/10 08:10:52;;;;;;;8.40;2.60;;;;;;;15.17;44.07;101682.58;107144;1245;63903;-73
2023/05/10 08:13:21;;;;;;;6.50;2.30;;;;;;;15.18;39.09;101678.98;107040;1248;62087;-73
2023/05/10 08:15:52;;;;;;;3.60;2.20;;;;;;;15.21;38.32;101677.35;107060;1255;59227;-73
2023/05/10 08:18:21;;;;;;;3.20;2.10;;;;;;;15.15;38.17;101683.13;106928;1244;73129;-73
2023/05/10 08:20:50;;;;;;;4.30;2.30;;;;;;;15.11;38.91;101680.11;107114;1245;59003;-73
2023/05/10 08:23:19;;;;;;;8.10;2.90;;;;;;;15.07;40.18;101675.27;107112;1243;59065;-73
2023/05/10 08:25:48;;;;;;;5.30;2.60;;;;;;;14.91;40.46;101681.36;107247;1251;72633;-72
2023/05/10 08:28:16;;;;;;;4.70;2.80;;;;;;;14.92;40.54;101676.80;107164;1251;72567;-72
2023/05/10 08:30:45;;;;;;;6.50;3.00;;;;;;;15.21;41.28;101675.45;107334;1245;60492;-76
2023/05/10 08:33:14;;;;;;;5.40;3.00;;;;;;;15.30;40.95;101676.69;107359;1244;72015;-72
2023/05/10 08:35:42;;;;;;;6.30;3.00;;;;;;;15.43;41.72;101675.00;107378;1244;60043;-72
2023/05/10 08:38:12;;;;;;;5.60;2.80;;;;;;;15.74;42.75;101674.64;107409;1244;59237;-73
2023/05/10 08:40:43;;;;;;;6.90;3.20;;;;;;;15.90;42.65;101673.58;107412;1244;62141;-69
2023/05/10 08:43:16;;;;;;;5.90;2.90;;;;;;;16.00;41.52;101672.77;107173;1251;71334;-70
2023/05/10 08:45:46;;;;;;;5.50;3.00;;;;;;;15.82;38.87;101674.38;107305;1255;70206;-71
2023/05/10 08:48:17;;;;;;;5.90;2.50;;;;;;;15.71;38.40;101670.71;107339;1248;73800;-84
2023/05/10 08:50:48;;;;;;;4.20;2.50;;;;;;;16.00;37.85;101666.48;107322;1244;61900;-79
2023/05/10 08:53:18;;;;;;;5.70;2.80;;;;;;;15.99;37.80;101665.48;107314;1246;57561;-70
2023/05/10 08:55:48;;;;;;;6.70;3.10;;;;;;;16.11;38.45;101669.97;107244;1255;63447;-70
2023/05/10 08:58:19;;;;;;;5.30;3.00;;;;;;;16.30;38.93;101670.23;107166;1245;61599;-71
2023/05/10 09:00:51;;;;;;;4.80;2.70;;;;;;;16.35;38.93;101668.55;107103;1247;69452;-72
2023/05/10 09:03:20;;;;;;;6.80;2.80;;;;;;;16.83;38.77;101665.30;107362;1244;63247;-70
2023/05/10 09:05:52;;;;;;;5.40;2.40;;;;;;;16.74;36.38;101657.95;107126;1255;59248;-71
2023/05/10 09:08:25;;;;;;;10.70;2.80;;;;;;;16.33;36.76;101660.63;107262;1245;58906;-70
2023/05/10 09:10:54;;;;;;;;;;;;;;;16.28;36.15;101661.24;107116;1245;62148;-71
2023/05/10 09:13:25;;;;;;;3.60;2.90;;;;;;;16.35;36.43;101663.76;107269;1255;61665;-70
2023/05/10 09:15:54;;;;;;;4.90;2.40;;;;;;;16.28;37.11;101664.74;107114;1248;60040;-70
2023/05/10 09:18:24;;;;;;;4.90;3.10;;;;;;;16.21;38.14;101666.31;107129;1245;62771;-70
2023/05/10 09:20:55;;;;;;;4.50;2.20;;;;;;;16.31;37.30;101670.48;107096;1245;58829;-71
2023/05/10 09:23:31;;;;;;;2.80;1.90;;;;;;;16.49;36.39;101672.32;107182;1248;58990;-70
2023/05/10 09:26:07;;;;;;;4.30;2.00;;;;;;;16.82;35.42;101667.81;107174;1245;73519;-70
2023/05/10 09:28:56;;;;;;;3.80;2.30;;;;;;;16.78;34.08;101663.73;107245;1252;61175;-70
2023/05/10 09:31:51;;;;;;;4.20;2.70;;;;;;;16.89;33.15;101660.39;107280;1245;69627;-70
2023/05/10 09:34:34;;;;;;;5.90;2.10;;;;;;;16.86;30.90;101664.56;107207;1248;63533;-70
2023/05/10 09:37:06;;;;;;;;;;;;;;;17.19;30.77;101661.59;107226;1245;59170;-71
2023/05/10 09:39:37;;;;;;;4.20;2.10;;;;;;;17.33;30.27;101658.19;107316;1244;59989;-71
2023/05/10 09:42:10;;;;;;;3.20;2.20;;;;;;;17.12;30.24;101653.14;107277;1244;63375;-71
2023/05/10 09:44:40;;;;;;;4.80;2.00;;;;;;;17.06;31.09;101647.89;107176;1245;71473;-70
2023/05/10 09:47:09;;;;;;;5.50;2.30;;;;;;;17.16;31.01;101648.42;107242;1245;60666;-71
2023/05/10 09:49:38;;;;;;;6.20;2.40;;;;;;;17.19;31.18;101650.61;107055;1248;63573;-71
2023/05/10 09:52:08;;;;;;;7.00;2.40;;;;;;;17.18;31.63;101642.48;107317;1245;59064;-71
2023/05/10 09:54:37;;;;;;;4.70;2.30;;;;;;;16.91;32.40;101649.48;107304;1244;61143;-69
2023/05/10 09:57:18;;;;;;;6.00;2.60;;;;;;;16.41;32.65;101652.06;107208;1245;73566;-70
2023/05/10 09:59:47;;;;;;;6.30;2.40;;;;;;;16.18;32.16;101650.44;107145;1245;61808;-69
2023/05/10 10:02:17;;;;;;;7.40;2.80;;;;;;;16.21;31.99;101652.41;107005;1255;70697;-69
2023/05/10 10:04:49;;;;;;;5.20;2.50;;;;;;;16.21;33.43;101649.34;107010;1248;74372;-68
2023/05/10 10:07:24;;;;;;;4.80;2.40;;;;;;;16.41;33.58;101650.80;106912;1244;61629;-70
2023/05/10 10:09:53;;;;;;;6.20;2.90;;;;;;;16.36;32.83;101651.01;107026;1246;57407;-70
2023/05/10 10:12:22;;;;;;;4.70;2.40;;;;;;;16.52;32.84;101648.17;107013;1255;62485;-70
2023/05/10 10:14:52;;;;;;;4.40;2.40;;;;;;;16.41;31.87;101652.23;107318;1244;61166;-70
2023/05/10 10:17:21;;;;;;;4.70;2.30;;;;;;;16.43;31.33;101649.28;107331;1244;60897;-71
2023/05/10 10:19:51;;;;;;;4.90;2.30;;;;;;;16.32;30.47;101647.16;107185;1245;62849;-73
2023/05/10 10:22:19;;;;;;;5.10;2.60;;;;;;;16.64;30.70;101645.25;107047;1251;60875;-71
2023/05/10 10:24:50;;;;;;;4.60;2.60;;;;;;;16.71;30.63;101644.08;107161;1243;61493;-69
2023/05/10 10:27:23;;;;;;;5.80;2.70;;;;;;;17.19;31.36;101643.02;107106;1244;64353;-71
2023/05/10 10:30:09;;;;;;;5.70;2.10;;;;;;;17.28;30.77;101643.19;107289;1244;60907;-69
2023/05/10 10:33:03;;;;;;;5.70;2.40;;;;;;;17.21;31.07;101648.56;107317;1245;60613;-71
2023/05/10 10:35:46;;;;;;;5.90;2.00;;;;;;;17.13;31.09;101647.83;107274;1245;63286;-74
2023/05/10 10:38:16;;;;;;;4.20;2.00;;;;;;;17.03;31.42;101650.59;107302;1244;59082;-74
2023/05/10 10:40:45;;;;;;;5.60;2.40;;;;;;;17.04;31.42;101649.84;107174;1245;59789;-70
2023/05/10 10:43:28;;;;;;;3.70;2.30;;;;;;;17.07;30.95;101646.56;107177;1244;72344;-71
2023/05/10 10:46:17;;;;;;;;;;;;;;;17.22;30.80;101643.82;107210;1244;72508;-70
2023/05/10 10:49:11;;;;;;;5.80;2.40;;;;;;;16.91;31.03;101643.88;106972;1248;59615;-70
2023/05/10 10:51:40;;;;;;;5.70;2.60;;;;;;;17.05;32.03;101640.04;106942;1246;74211;-71
2023/05/10 10:54:12;;;;;;;6.00;2.10;;;;;;;16.92;31.83;101632.86;106997;1254;58257;-70
2023/05/10 10:56:44;;;;;;;3.60;1.80;;;;;;;17.17;31.74;101630.52;106943;1245;59066;-70
2023/05/10 10:59:27;;;;;;;5.20;2.30;;;;;;;17.23;31.68;101628.31;106755;1247;72410;-70
2023/05/10 11:01:55;;;;;;;5.90;2.30;;;;;;;17.61;31.67;101631.67;106893;1255;72223;-70
2023/05/10 11:04:24;;;;;;;3.40;2.40;;;;;;;17.89;30.92;101629.73;106951;1255;59893;-72
2023/05/10 11:07:17;;;;;;;5.30;2.10;;;;;;;17.81;29.82;101630.78;106931;1246;62804;-71
2023/05/10 11:09:47;;;;;;;7.60;2.60;;;;;;;17.89;30.17;101630.27;107053;1245;61218;-70
2023/05/10 11:12:16;;;;;;;6.00;2.50;;;;;;;17.77;30.65;101629.08;106909;1245;59083;-71
2023/05/10 11:14:51;;;;;;;4.40;2.40;;;;;;;18.05;30.31;101628.02;106898;1252;62147;-70
2023/05/10 11:17:38;;;;;;;6.60;3.10;;;;;;;17.75;29.05;101627.28;106921;1242;71475;-71
2023/05/10 11:20:13;;;;;;;7.00;2.40;;;;;;;18.31;29.45;101627.76;106801;1254;59963;-72
2023/05/10 11:22:54;;;;;;;3.20;1.80;;;;;;;18.36;28.23;101629.28;106921;1248;63248;-71
2023/05/10 11:25:29;;;;;;;3.50;2.20;;;;;;;18.50;29.15;101628.36;106862;1248;60560;-72
2023/05/10 11:28:02;;;;;;;4.40;2.30;;;;;;;18.58;28.03;101627.44;107090;1245;60687;-72
2023/05/10 11:30:31;;;;;;;3.80;2.70;;;;;;;18.62;28.06;101624.43;106909;1249;63183;-72
2023/05/10 11:33:00;;;;;;;4.00;2.40;;;;;;;18.35;28.08;101626.55;107041;1248;60721;-71
2023/05/10 11:35:29;;;;;;;4.10;2.50;;;;;;;18.11;28.91;101624.84;107104;1243;70838;-73
2023/05/10 11:37:58;;;;;;;4.30;2.40;;;;;;;18.19;28.93;101626.02;107098;1246;63900;-71
2023/05/10 11:40:27;;;;;;;3.00;2.00;;;;;;;18.58;29.53;101625.13;107063;1255;58917;-70
2023/05/10 11:42:56;;;;;;;6.40;2.30;;;;;;;18.43;28.56;101627.14;106858;1241;59106;-71
2023/05/10 11:45:25;;;;;;;3.20;2.00;;;;;;;18.33;29.26;101623.35;106900;1245;63665;-71
2023/05/10 11:47:57;;;;;;;3.90;2.20;;;;;;;18.67;28.46;101629.42;106977;1248;71297;-71
2023/05/10 11:50:27;;;;;;;3.70;2.10;;;;;;;19.07;28.04;101627.06;106907;1248;60142;-72
2023/05/10 11:52:58;;;;;;;3.30;2.10;;;;;;;18.99;27.19;101626.64;106972;1255;63593;-71
2023/05/10 11:55:27;;;;;;;3.10;2.00;;;;;;;19.10;27.24;101624.85;106971;1245;60473;-76
2023/05/10 11:58:01;;;;;;;4.80;2.40;;;;;;;19.17;27.95;101626.93;107440;1244;60658;-71
2023/05/10 12:00:31;;;;;;;3.90;2.20;;;;;;;19.22;30.92;101628.86;106850;1244;73371;-70
2023/05/10 12:03:01;;;;;;;7.40;2.80;;;;;;;19.16;31.68;101627.63;106891;1247;61940;-71
2023/05/10 12:05:33;;;;;;;5.90;2.90;;;;;;;19.12;32.37;101627.33;107024;1246;69729;-70
2023/05/10 12:08:15;;;;;;;5.20;2.90;;;;;;;18.71;32.62;101623.19;107050;1246;63985;-72
2023/05/10 12:10:44;;;;;;;5.40;2.50;;;;;;;18.05;33.88;101626.56;106986;1248;60237;-71
2023/05/10 12:13:15;;;;;;;4.60;2.50;;;;;;;17.65;34.00;101629.02;107095;1245;61512;-71
2023/05/10 12:15:44;;;;;;;5.30;3.00;;;;;;;17.66;34.80;101625.09;106863;1251;73191;-70
2023/05/10 12:18:15;;;;;;;6.70;3.00;;;;;;;17.57;35.01;101617.11;106922;1244;70818;-72
2023/05/10 12:20:44;;;;;;;5.80;2.90;;;;;;;17.68;34.50;101618.58;109427;1243;71342;-71
2023/05/10 12:23:14;;;;;;;5.50;3.50;;;;;;;17.86;34.51;101616.66;109483;1243;73519;-71
2023/05/10 12:25:43;;;;;;;5.30;2.50;;;;;;;17.81;34.74;101613.41;109383;1248;61804;-71
2023/05/10 12:28:12;;;;;;;4.10;2.20;;;;;;;17.71;34.86;101611.98;109474;1246;61329;-72
2023/05/10 12:30:41;;;;;;;8.00;3.10;;;;;;;17.49;35.80;101611.96;109375;1243;73237;-73
2023/05/10 12:33:16;;;;;;;4.30;2.40;;;;;;;17.55;36.16;101614.02;109444;1243;71281;-72
2023/05/10 12:35:53;;;;;;;6.10;2.60;;;;;;;17.60;36.33;101610.27;109416;1248;59485;-72
2023/05/10 12:38:37;;;;;;;4.40;2.30;;;;;;;17.61;36.05;101609.35;109417;1244;73090;-72
2023/05/10 12:41:18;;;;;;;5.90;2.70;;;;;;;17.90;35.22;101608.31;109565;1245;57626;-72
2023/05/10 12:43:47;;;;;;;6.80;2.60;;;;;;;18.26;35.16;101601.25;109393;1247;62031;-73
2023/05/10 12:46:17;;;;;;;5.30;2.60;;;;;;;18.46;35.20;101604.66;109478;1244;74060;-74
2023/05/10 12:48:49;;;;;;;5.00;2.60;;;;;;;18.85;32.92;101600.76;109609;1244;61653;-74
2023/05/10 12:51:31;;;;;;;9.40;4.20;;;;;;;19.01;32.24;101599.27;109552;1243;69629;-73
2023/05/10 12:53:59;;;;;;;8.60;3.70;;;;;;;19.57;31.32;101594.98;109659;1242;74019;-74
2023/05/10 12:56:28;;;;;;;4.20;3.10;;;;;;;19.17;31.14;101589.96;109509;1248;57717;-71
2023/05/10 12:58:57;;;;;;;6.50;2.80;;;;;;;19.05;30.96;101588.80;109553;1244;57208;-74
2023/05/10 13:01:26;;;;;;;5.20;2.50;;;;;;;19.96;30.34;101584.09;109677;1244;62745;-70
2023/05/10 13:03:55;;;;;;;5.10;2.60;;;;;;;21.59;27.69;101582.58;109628;1244;71402;-75
2023/05/10 13:06:23;;;;;;;5.30;2.30;;;;;;;22.10;26.56;101579.11;109448;1247;61230;-75
2023/05/10 13:08:52;;;;;;;4.30;3.00;;;;;;;20.50;26.90;101576.22;109561;1245;74207;-76
2023/05/10 13:11:21;;;;;;;4.80;2.30;;;;;;;20.08;27.80;101575.86;109458;1244;57276;-75
2023/05/10 13:13:51;;;;;;;6.10;2.60;;;;;;;19.94;28.47;101574.90;109398;1245;58145;-76
2023/05/10 13:16:20;;;;;;;4.20;2.50;;;;;;;21.19;28.20;101570.56;109320;1243;72683;-76
2023/05/10 13:18:48;;;;;;;6.90;4.40;;;;;;;22.27;26.39;101572.32;109219;1247;72534;-73
2023/05/10 13:21:17;;;;;;;7.80;2.50;;;;;;;21.81;27.16;101568.23;109486;1242;70107;-74
2023/05/10 13:23:46;;;;;;;8.20;2.90;;;;;;;21.43;27.13;101567.19;109584;1244;62978;-77
2023/05/10 13:26:15;;;;;;;3.50;2.10;;;;;;;21.55;26.56;101563.33;109607;1245;57622;-73
2023/05/10 13:28:45;;;;;;;5.60;2.30;;;;;;;21.68;26.49;101563.33;109443;1245;57160;-74
2023/05/10 13:31:14;;;;;;;6.50;2.80;;;;;;;21.27;27.54;101561.13;109482;1244;62970;-73
2023/05/10 13:33:43;;;;;;;3.50;1.90;;;;;;;20.79;27.93;101557.41;109441;1243;61427;-73
2023/05/10 13:36:12;;;;;;;5.00;2.30;;;;;;;20.82;28.17;101557.84;109378;1243;59239;-75
2023/05/10 13:38:41;;;;;;;5.10;2.00;;;;;;;20.83;27.68;101557.67;109372;1244;74872;-72
2023/05/10 13:41:10;;;;;;;7.60;2.10;;;;;;;20.74;27.64;101555.98;109484;1246;61609;-72
2023/05/10 13:43:39;;;;;;;3.70;2.30;;;;;;;21.24;27.91;101557.36;109437;1244;57097;-71
2023/05/10 13:46:08;;;;;;;4.50;2.30;;;;;;;21.41;26.86;101556.98;109510;1244;62132;-72
2023/05/10 13:48:37;;;;;;;4.40;2.20;;;;;;;21.84;26.17;101555.05;109376;1243;72728;-73
2023/05/10 13:51:06;;;;;;;11.60;5.50;;;;;;;21.28;26.68;101557.52;109455;1244;61876;-71
2023/05/10 13:53:36;;;;;;;5.70;2.70;;;;;;;21.29;26.36;101558.06;109343;1244;65119;-72
2023/05/10 13:56:05;;;;;;;2.90;2.20;;;;;;;20.78;27.56;101556.48;109597;1242;61308;-71
2023/05/10 13:58:35;;;;;;;4.90;2.30;;;;;;;21.16;27.13;101548.11;109571;1245;60461;-71
2023/05/10 14:01:04;;;;;;;4.00;2.50;;;;;;;21.05;27.20;101550.83;109491;1244;63446;-71
2023/05/10 14:03:33;;;;;;;6.90;2.40;;;;;;;20.64;28.28;101551.88;109439;1241;61707;-72
2023/05/10 14:06:02;;;;;;;3.50;2.10;;;;;;;20.65;28.29;101547.81;109584;1244;60265;-71
2023/05/10 14:08:31;;;;;;;3.80;1.80;;;;;;;20.54;27.44;101547.90;109579;1244;63352;-72
2023/05/10 14:11:00;;;;;;;3.90;2.40;;;;;;;20.07;28.48;101550.19;109547;1245;59848;-72
2023/05/10 14:13:29;;;;;;;4.80;2.40;;;;;;;19.83;28.33;101548.46;109613;1244;60386;-71
2023/05/10 14:16:00;;;;;;;3.20;2.20;;;;;;;20.02;28.56;101547.95;109554;1244;73925;-70
2023/05/10 14:18:29;;;;;;;4.30;2.50;;;;;;;19.93;28.45;101546.41;109662;1241;62377;-71
2023/05/10 14:20:58;;;;;;;3.30;2.00;;;;;;;20.00;28.80;101547.13;109477;1243;59753;-70
2023/05/10 14:23:28;;;;;;;4.60;2.30;;;;;;;20.38;28.43;101540.20;109561;1244;63248;-71
2023/05/10 14:25:57;;;;;;;3.10;2.10;;;;;;;19.99;28.75;101544.16;109418;1247;57686;-70
2023/05/10 14:28:26;;;;;;;6.90;2.10;;;;;;;20.35;28.57;101543.59;109573;1244;60392;-72
2023/05/10 14:30:55;;;;;;;7.00;2.60;;;;;;;20.54;28.23;101538.95;109555;1244;73359;-72
2023/05/10 14:33:23;;;;;;;2.90;2.20;;;;;;;20.19;27.69;101539.75;109504;1242;72586;-71
2023/05/10 14:35:56;;;;;;;5.80;2.20;;;;;;;20.31;28.23;101534.98;109554;1241;60866;-70
2023/05/10 14:38:25;;;;;;;7.50;2.20;;;;;;;20.37;28.59;101534.39;109495;1244;64210;-71
2023/05/10 14:40:54;;;;;;;6.00;2.30;;;;;;;20.78;28.04;101537.11;109422;1245;61362;-71
2023/05/10 14:43:23;;;;;;;2.80;2.00;;;;;;;21.28;27.71;101537.11;109324;1244;61782;-71
2023/05/10 14:45:52;;;;;;;4.10;2.40;;;;;;;21.75;27.05;101540.61;109572;1241;74014;-71
2023/05/10 14:48:21;;;;;;;3.70;2.10;;;;;;;22.38;27.09;101537.86;109528;1241;71812;-72
2023/05/10 14:50:52;;;;;;;4.90;2.40;;;;;;;22.03;25.93;101535.00;109377;1243;70932;-71
2023/05/10 14:53:21;;;;;;;6.20;2.30;;;;;;;21.41;26.84;101535.23;109518;1242;65233;-71
2023/05/10 14:55:50;;;;;;;3.90;2.30;;;;;;;20.86;27.67;101531.20;109513;1244;57287;-72
2023/05/10 14:58:19;;;;;;;4.60;2.20;;;;;;;20.78;26.96;101530.40;109999;1238;57611;-72
2023/05/10 15:00:48;;;;;;;3.10;2.10;;;;;;;20.50;27.18;101531.89;109975;1238;71635;-72
2023/05/10 15:03:17;;;;;;;5.70;2.00;;;;;;;21.61;26.28;101526.13;109895;1237;71694;-69
2023/05/10 15:05:47;;;;;;;3.80;2.00;;;;;;;22.75;25.30;101527.42;110014;1239;71566;-70
2023/05/10 15:08:15;;;;;;;3.30;2.00;;;;;;;22.95;24.17;101528.92;109792;1238;74694;-70
2023/05/10 15:10:44;;;;;;;5.20;2.50;;;;;;;23.55;23.90;101529.58;110032;1238;57720;-71
2023/05/10 15:13:13;;;;;;;11.10;5.20;;;;;;;23.21;22.86;101528.27;110069;1238;57659;-71
2023/05/10 15:15:42;;;;;;;3.50;2.00;;;;;;;23.59;23.31;101525.90;109892;1238;63064;-70
2023/05/10 15:18:11;;;;;;;3.80;2.10;;;;;;;23.87;22.96;101523.21;109967;1238;60957;-70
2023/05/10 15:20:40;;;;;;;12.00;7.20;;;;;;;23.37;22.97;101520.52;110018;1237;70469;-71
2023/05/10 15:23:08;;;;;;;6.80;4.20;;;;;;;23.01;23.38;101518.83;109985;1239;74082;-71
2023/05/10 15:25:37;;;;;;;4.10;2.30;;;;;;;22.89;23.30;101517.52;110023;1239;57738;-71
2023/05/10 15:28:06;;;;;;;3.70;2.00;;;;;;;22.42;23.79;101515.98;110029;1237;57556;-75
2023/05/10 15:30:35;;;;;;;4.70;2.20;;;;;;;21.84;24.51;101514.46;109998;1239;73522;-68
2023/05/10 15:33:03;;;;;;;4.40;2.30;;;;;;;20.85;25.65;101512.15;109804;1237;71245;-69
2023/05/10 15:35:35;;;;;;;9.30;2.50;;;;;;;19.99;27.13;101515.73;109830;1237;70542;-69
2023/05/10 15:38:04;;;;;;;5.90;2.00;;;;;;;19.33;27.17;101519.20;109885;1239;62838;-70
2023/05/10 15:40:33;;;;;;;3.60;2.20;;;;;;;19.33;27.24;101519.20;110002;1238;60470;-70
2023/05/10 15:43:02;;;;;;;4.60;2.00;;;;;;;18.56;28.54;101522.25;109982;1238;61244;-70
2023/05/10 15:45:30;;;;;;;4.00;2.50;;;;;;;19.14;27.52;101518.60;109877;1238;64399;-74
2023/05/10 15:47:59;;;;;;;5.70;2.50;;;;;;;19.64;27.11;101520.31;109810;1240;60889;-71
2023/05/10 15:50:28;;;;;;;4.30;2.10;;;;;;;19.75;27.04;101521.34;109605;1238;60786;-72
2023/05/10 15:52:57;;;;;;;3.60;2.20;;;;;;;19.72;27.96;101522.69;109617;1242;63334;-72
2023/05/10 15:55:26;;;;;;;3.60;2.20;;;;;;;19.62;28.61;101520.27;109823;1240;57992;-74
2023/05/10 15:57:55;;;;;;;5.50;2.40;;;;;;;19.87;28.80;101519.62;109621;1240;60382;-71
2023/05/10 16:00:24;;;;;;;6.30;2.60;;;;;;;20.12;29.50;101520.83;109663;1240;74138;-74
2023/05/10 16:02:53;;;;;;;5.00;2.40;;;;;;;20.50;29.40;101519.69;109878;1238;72482;-73
2023/05/10 16:05:23;;;;;;;4.50;2.60;;;;;;;20.82;29.20;101522.36;109741;1243;60361;-74
2023/05/10 16:07:52;;;;;;;5.00;2.50;;;;;;;20.89;28.95;101518.81;109852;1238;74306;-72
2023/05/10 16:10:21;;;;;;;4.80;2.10;;;;;;;20.92;28.88;101516.41;109598;1242;57621;-72
2023/05/10 16:12:50;;;;;;;9.20;2.80;;;;;;;20.56;29.11;101516.36;109821;1237;61206;-73
2023/05/10 16:15:20;;;;;;;4.70;2.60;;;;;;;19.74;29.97;101518.03;109615;1242;63410;-74
2023/05/10 16:17:49;;;;;;;4.30;2.80;;;;;;;19.13;30.79;101517.30;109786;1238;61658;-73